Time;durP1;ratioP1;P1;durP2;ratioP2;P2;SDS_P1;SDS_P2;PMS_P1;PMS_P2;Temp;Humidity;BMP_temperature;BMP_pressure;BME280_temperature;BME280_humidity;BME280_pressure;Samples;Min_cycle;Max_cycle;Signal;HPM_P1;HPM_P2
2024/03/04 00:00:47;;;;;;;47.33;38.83;;;5.90;99.90;;;;;;5036203;28;20036;-76
2024/03/04 00:03:13;;;;;;;48.03;40.50;;;5.80;99.90;;;;;;5037276;28;20056;-76
2024/03/04 00:05:39;;;;;;;46.67;38.22;;;5.80;99.90;;;;;;5034507;28;20414;-75
2024/03/04 00:08:05;;;;;;;45.78;38.58;;;5.80;99.90;;;;;;5043310;28;20049;-76
2024/03/04 00:10:31;;;;;;;43.67;38.67;;;5.70;99.90;;;;;;5047557;28;20044;-76
2024/03/04 00:12:57;;;;;;;49.53;42.47;;;5.70;99.90;;;;;;5030976;28;20032;-76
2024/03/04 00:15:23;;;;;;;50.38;42.55;;;5.90;99.90;;;;;;5038540;28;20556;-76
2024/03/04 00:17:52;;;;;;;53.63;45.25;;;5.70;99.90;;;;;;5052507;28;20456;-76
2024/03/04 00:20:18;;;;;;;55.58;45.10;;;5.80;99.90;;;;;;5031063;28;20049;-75
2024/03/04 00:22:47;;;;;;;46.65;40.63;;;5.70;99.90;;;;;;5034485;28;20076;-76
2024/03/04 00:25:16;;;;;;;52.50;42.35;;;5.70;99.90;;;;;;5053522;28;20106;-75
2024/03/04 00:27:47;;;;;;;51.80;42.72;;;5.70;99.90;;;;;;5031659;28;20501;-76
2024/03/04 00:30:14;;;;;;;53.90;44.90;;;5.70;99.90;;;;;;5036306;28;20057;-76
2024/03/04 00:32:40;;;;;;;49.97;41.90;;;5.70;99.90;;;;;;5035549;28;20218;-76
2024/03/04 00:35:06;;;;;;;51.65;44.05;;;5.70;99.90;;;;;;5041995;28;20059;-77
2024/03/04 00:37:32;;;;;;;55.83;47.08;;;5.70;99.90;;;;;;5046606;28;20454;-76
2024/03/04 00:39:58;;;;;;;61.72;49.83;;;5.70;99.90;;;;;;5024627;28;20041;-76
2024/03/04 00:42:27;;;;;;;59.75;50.00;;;5.80;99.90;;;;;;5025551;28;20479;-76
2024/03/04 00:44:55;;;;;;;61.70;50.58;;;5.80;99.90;;;;;;5042016;28;20068;-76
2024/03/04 00:47:20;;;;;;;69.13;52.95;;;5.70;99.90;;;;;;5012397;28;20049;-76
2024/03/04 00:49:46;;;;;;;67.85;53.65;;;5.80;99.90;;;;;;5035492;28;20607;-75
2024/03/04 00:52:13;;;;;;;56.90;47.38;;;5.80;99.90;;;;;;5024612;28;20052;-76
2024/03/04 00:54:40;;;;;;;59.42;48.72;;;5.80;99.90;;;;;;5030403;28;20496;-75
2024/03/04 00:57:07;;;;;;;55.10;47.70;;;5.80;99.90;;;;;;5045342;28;20056;-75
2024/03/04 00:59:33;;;;;;;72.32;54.75;;;5.80;99.90;;;;;;5039445;28;20181;-76
2024/03/04 01:01:59;;;;;;;64.97;53.20;;;5.80;99.90;;;;;;5041642;28;20558;-76
2024/03/04 01:04:25;;;;;;;63.38;52.53;;;5.90;99.90;;;;;;5038531;28;20440;-77
2024/03/04 01:06:52;;;;;;;66.30;51.90;;;5.90;99.90;;;;;;5018318;28;20098;-75
2024/03/04 01:09:21;;;;;;;62.28;48.83;;;5.90;99.90;;;;;;5039388;28;20492;-76
2024/03/04 01:11:47;;;;;;;78.15;56.10;;;5.90;99.90;;;;;;5020953;28;20036;-74
2024/03/04 01:14:13;;;;;;;70.88;54.45;;;5.90;99.90;;;;;;5039457;28;20101;-75
2024/03/04 01:16:42;;;;;;;94.50;59.45;;;5.90;99.90;;;;;;5031046;28;20104;-75
2024/03/04 01:19:09;;;;;;;56.40;46.77;;;5.90;99.90;;;;;;5040210;28;20044;-76
2024/03/04 01:21:35;;;;;;;61.10;50.92;;;5.80;99.90;;;;;;5029900;28;20040;-76
2024/03/04 01:24:00;;;;;;;57.45;47.85;;;5.80;99.90;;;;;;5039735;28;20036;-75
2024/03/04 01:26:26;;;;;;;57.33;46.25;;;5.80;99.90;;;;;;5034507;28;20041;-75
2024/03/04 01:28:52;;;;;;;53.28;44.95;;;5.70;99.90;;;;;;5021262;28;20471;-75
2024/03/04 01:31:18;;;;;;;56.65;45.97;;;5.70;99.90;;;;;;5033793;28;20060;-76
2024/03/04 01:33:50;;;;;;;67.95;51.60;;;5.70;99.90;;;;;;5032345;28;20048;-76
2024/03/04 01:36:17;;;;;;;52.70;45.33;;;5.60;99.90;;;;;;5040653;28;20128;-76
2024/03/04 01:38:43;;;;;;;55.97;45.63;;;5.60;99.90;;;;;;5020195;28;20048;-75
2024/03/04 01:41:09;;;;;;;54.13;44.60;;;5.60;99.90;;;;;;5035467;28;20045;-76
2024/03/04 01:43:35;;;;;;;68.15;50.80;;;5.40;99.90;;;;;;5035676;28;20075;-75
2024/03/04 01:46:01;;;;;;;65.20;39.42;;;5.50;99.90;;;;;;5018029;28;20049;-76
2024/03/04 01:48:29;;;;;;;93.60;45.95;;;5.50;99.90;;;;;;5035509;28;20037;-76
2024/03/04 01:50:56;;;;;;;73.78;40.33;;;5.40;99.90;;;;;;5043384;28;20083;-76
2024/03/04 01:53:23;;;;;;;59.80;37.60;;;5.30;99.90;;;;;;5027495;28;20064;-77
2024/03/04 01:55:56;;;;;;;33.58;30.00;;;5.20;99.90;;;;;;5036670;28;20377;-76
2024/03/04 01:58:22;;;;;;;39.53;34.08;;;5.10;99.90;;;;;;5034774;28;20094;-76
2024/03/04 02:00:51;;;;;;;38.83;34.60;;;5.00;99.90;;;;;;5047407;28;20139;-76
2024/03/04 02:03:18;;;;;;;46.67;38.13;;;5.00;99.90;;;;;;5036338;28;20441;-76
2024/03/04 02:05:47;;;;;;;46.33;39.40;;;4.90;99.90;;;;;;5043839;28;20043;-76
2024/03/04 02:08:14;;;;;;;47.42;38.78;;;4.90;99.90;;;;;;5018520;28;20156;-76
2024/03/04 02:10:40;;;;;;;50.75;41.55;;;4.90;99.90;;;;;;5042832;28;20123;-75
2024/03/04 02:13:07;;;;;;;55.88;44.72;;;4.80;99.90;;;;;;5046589;28;20341;-74
2024/03/04 02:15:37;;;;;;;71.57;48.67;;;4.80;99.90;;;;;;5017674;28;20040;-75
2024/03/04 02:18:05;;;;;;;55.47;44.30;;;4.70;99.90;;;;;;5019051;28;20549;-75
2024/03/04 02:20:37;;;;;;;45.17;38.72;;;4.70;99.90;;;;;;5033307;28;20867;-75
2024/03/04 02:23:06;;;;;;;42.60;36.90;;;4.70;99.90;;;;;;5046996;28;20480;-74
2024/03/04 02:25:39;;;;;;;52.47;42.20;;;4.70;99.90;;;;;;5039158;28;20060;-75
2024/03/04 02:28:06;;;;;;;51.08;38.92;;;4.70;99.90;;;;;;5037259;28;20049;-74
2024/03/04 02:30:35;;;;;;;39.70;35.40;;;4.70;99.90;;;;;;5049145;28;20505;-77
2024/03/04 02:33:04;;;;;;;41.72;36.45;;;4.70;99.90;;;;;;5033594;28;20049;-76
2024/03/04 02:35:35;;;;;;;42.83;35.97;;;4.70;99.90;;;;;;5029602;28;20041;-77
2024/03/04 02:38:04;;;;;;;;;;;4.60;99.90;;;;;;5040921;28;20154;-75
2024/03/04 02:40:30;;;;;;;46.30;38.50;;;4.60;99.90;;;;;;5044949;28;19971;-76
2024/03/04 02:42:56;;;;;;;42.72;37.25;;;4.60;99.90;;;;;;5031765;28;20116;-75
2024/03/04 02:45:22;;;;;;;42.22;36.78;;;4.60;99.90;;;;;;5034537;28;20132;-76
2024/03/04 02:47:48;;;;;;;39.75;34.70;;;4.60;99.90;;;;;;5014631;28;20640;-76
2024/03/04 02:50:14;;;;;;;39.30;33.88;;;4.50;99.90;;;;;;5034702;28;20102;-76
2024/03/04 02:52:40;;;;;;;41.35;35.05;;;4.60;99.90;;;;;;5016406;28;20037;-75
2024/03/04 02:55:06;;;;;;;41.95;34.95;;;4.60;99.90;;;;;;5046336;28;20041;-77
2024/03/04 02:57:32;;;;;;;47.50;39.20;;;4.50;99.90;;;;;;5018664;28;20444;-77
2024/03/04 02:59:58;;;;;;;45.45;36.42;;;4.40;99.90;;;;;;5028965;28;20106;-77
2024/03/04 03:02:24;;;;;;;41.40;36.15;;;4.40;99.90;;;;;;5022124;28;20040;-77
2024/03/04 03:04:50;;;;;;;49.28;39.22;;;4.30;99.90;;;;;;5032291;28;20040;-77
2024/03/04 03:07:17;;;;;;;45.33;38.35;;;4.30;99.90;;;;;;5040376;28;20048;-77
2024/03/04 03:09:43;;;;;;;49.83;42.95;;;4.20;99.90;;;;;;5026521;28;20048;-77
2024/03/04 03:12:12;;;;;;;54.35;44.00;;;4.20;99.90;;;;;;5029570;28;20486;-76
2024/03/04 03:14:38;;;;;;;52.08;41.35;;;4.10;99.90;;;;;;5030784;28;20170;-77
2024/03/04 03:17:04;;;;;;;51.92;40.53;;;4.10;99.90;;;;;;5032582;28;20063;-77
2024/03/04 03:19:30;;;;;;;59.60;45.53;;;4.10;99.90;;;;;;5021344;28;20048;-77
2024/03/04 03:21:56;;;;;;;62.97;47.95;;;4.00;99.90;;;;;;5039502;28;20051;-77
2024/03/04 03:24:25;;;;;;;58.20;46.28;;;3.90;99.90;;;;;;5041196;28;20044;-76
2024/03/04 03:26:51;;;;;;;56.25;42.65;;;3.90;99.90;;;;;;5038258;28;20469;-76
2024/03/04 03:29:17;;;;;;;59.15;46.67;;;3.90;99.90;;;;;;5020116;28;20494;-76
2024/03/04 03:31:44;;;;;;;46.55;39.70;;;3.90;99.90;;;;;;5042101;28;20048;-75
2024/03/04 03:34:10;;;;;;;47.92;39.92;;;3.90;99.90;;;;;;5030338;28;20417;-75
2024/03/04 03:36:43;;;;;;;78.45;50.05;;;4.00;99.90;;;;;;5031394;28;20043;-76
2024/03/04 03:39:12;;;;;;;75.43;46.60;;;3.90;99.90;;;;;;5032709;28;20056;-76
2024/03/04 03:41:38;;;;;;;55.70;40.08;;;3.90;99.90;;;;;;5021663;28;20521;-75
2024/03/04 03:44:04;;;;;;;59.05;41.78;;;3.90;99.90;;;;;;5028083;28;20041;-75
2024/03/04 03:46:30;;;;;;;131.50;49.97;;;3.90;99.90;;;;;;5025023;28;20551;-75
2024/03/04 03:48:56;;;;;;;99.78;50.78;;;4.00;99.90;;;;;;5034593;28;20056;-74
2024/03/04 03:51:22;;;;;;;75.25;49.65;;;4.00;99.90;;;;;;5009769;28;20048;-74
2024/03/04 03:53:48;;;;;;;54.30;44.00;;;4.00;99.90;;;;;;5014653;28;20048;-75
2024/03/04 03:56:14;;;;;;;74.38;50.45;;;4.00;99.90;;;;;;5017500;28;20473;-75
2024/03/04 03:58:40;;;;;;;55.50;44.35;;;4.00;99.90;;;;;;5018719;28;20036;-75
2024/03/04 04:01:06;;;;;;;91.85;53.83;;;4.10;99.90;;;;;;5030198;28;20037;-76
2024/03/04 04:03:35;;;;;;;127.88;60.42;;;4.10;99.90;;;;;;5014967;28;20718;-75
2024/03/04 04:06:01;;;;;;;91.43;55.63;;;4.10;99.90;;;;;;5028855;28;20045;-75
2024/03/04 04:08:27;;;;;;;278.50;72.28;;;4.20;99.90;;;;;;5025508;28;20051;-74
2024/03/04 04:10:54;;;;;;;364.83;82.78;;;4.30;99.90;;;;;;5025780;28;20044;-74
2024/03/04 04:13:23;;;;;;;477.67;90.30;;;4.40;99.90;;;;;;5025141;28;20102;-75
2024/03/04 04:15:51;;;;;;;318.30;81.63;;;4.50;99.90;;;;;;5038525;28;20401;-75
2024/03/04 04:18:20;;;;;;;532.00;100.00;;;4.50;99.90;;;;;;5033259;28;20358;-75
2024/03/04 04:20:47;;;;;;;463.67;94.88;;;4.60;99.90;;;;;;5043243;28;20123;-76
2024/03/04 04:23:13;;;;;;;278.20;69.40;;;4.60;99.90;;;;;;5021698;28;20525;-75
2024/03/04 04:25:44;;;;;;;246.80;72.78;;;4.60;99.90;;;;;;5029571;28;20108;-76
2024/03/04 04:28:10;;;;;;;443.60;90.07;;;4.60;99.90;;;;;;5030058;28;20579;-75
2024/03/04 04:30:38;;;;;;;478.45;94.35;;;4.60;99.90;;;;;;5038673;28;20056;-75
2024/03/04 04:33:04;;;;;;;384.77;80.93;;;4.60;99.90;;;;;;5033004;28;20057;-75
2024/03/04 04:35:30;;;;;;;119.28;61.47;;;4.70;99.90;;;;;;5044587;28;20059;-76
2024/03/04 04:37:55;;;;;;;87.60;57.45;;;4.60;99.90;;;;;;5041134;28;20084;-75
2024/03/04 04:40:21;;;;;;;153.38;59.13;;;4.70;99.90;;;;;;5042622;28;20572;-77
2024/03/04 04:42:47;;;;;;;440.52;87.38;;;4.70;99.90;;;;;;5029022;28;20041;-76
2024/03/04 04:45:13;;;;;;;82.95;55.15;;;4.80;99.90;;;;;;5029324;28;20173;-76
2024/03/04 04:47:39;;;;;;;368.05;80.15;;;4.70;99.90;;;;;;5022351;28;20573;-76
2024/03/04 04:50:05;;;;;;;72.85;52.90;;;4.80;99.90;;;;;;5039681;28;20102;-76
2024/03/04 04:52:34;;;;;;;119.43;57.30;;;4.80;99.90;;;;;;5035819;28;20090;-76
2024/03/04 04:55:00;;;;;;;345.95;75.40;;;4.80;99.90;;;;;;5032238;28;20523;-77
2024/03/04 04:57:26;;;;;;;304.50;71.50;;;4.80;99.90;;;;;;5020773;28;20259;-77
2024/03/04 04:59:52;;;;;;;98.00;53.05;;;4.80;99.90;;;;;;5031408;28;20045;-77
2024/03/04 05:02:17;;;;;;;91.38;55.42;;;4.90;99.90;;;;;;5029601;28;20291;-77
2024/03/04 05:04:44;;;;;;;494.55;98.35;;;4.90;99.90;;;;;;5019103;28;20120;-76
2024/03/04 05:07:10;;;;;;;107.45;55.58;;;4.90;99.90;;;;;;5020954;28;20056;-77
2024/03/04 05:09:35;;;;;;;111.20;54.22;;;4.90;99.90;;;;;;5031993;28;20053;-76
2024/03/04 05:12:01;;;;;;;446.58;93.10;;;4.90;99.90;;;;;;5033395;28;20056;-77
2024/03/04 05:14:27;;;;;;;152.85;62.03;;;4.90;99.90;;;;;;5046632;28;20493;-77
2024/03/04 05:16:54;;;;;;;373.10;85.43;;;5.00;99.90;;;;;;5028635;28;20048;-76
2024/03/04 05:19:22;;;;;;;110.35;58.70;;;5.00;99.90;;;;;;5026622;28;20040;-77
2024/03/04 05:21:51;;;;;;;349.90;82.35;;;5.00;99.90;;;;;;5030746;28;20128;-79
2024/03/04 05:24:17;;;;;;;257.73;74.85;;;5.00;99.90;;;;;;5036983;28;20059;-76
2024/03/04 05:26:45;;;;;;;402.33;88.32;;;5.00;99.90;;;;;;5038587;28;20041;-77
2024/03/04 05:29:11;;;;;;;380.70;92.05;;;5.10;99.90;;;;;;5033082;28;20049;-75
2024/03/04 05:31:56;;;;;;;441.70;94.72;;;5.10;99.90;;;;;;5018651;28;20040;-75
2024/03/04 05:34:22;;;;;;;481.42;97.25;;;5.20;99.90;;;;;;5027692;28;20055;-75
2024/03/04 05:36:48;;;;;;;84.07;56.88;;;5.20;99.90;;;;;;5039551;28;20049;-75
2024/03/04 05:39:20;;;;;;;253.68;71.68;;;5.20;99.90;;;;;;5023983;28;20052;-75
2024/03/04 05:41:48;;;;;;;437.63;94.80;;;5.20;99.90;;;;;;5021895;28;20502;-75
2024/03/04 05:44:15;;;;;;;410.50;92.78;;;5.20;99.90;;;;;;5035328;28;20065;-75
2024/03/04 05:46:41;;;;;;;87.85;57.47;;;5.30;99.90;;;;;;5028388;28;20102;-75
2024/03/04 05:49:10;;;;;;;78.82;55.22;;;5.30;99.90;;;;;;5030099;28;20053;-75
2024/03/04 05:51:40;;;;;;;101.43;60.33;;;5.40;99.90;;;;;;5056517;28;20048;-75
2024/03/04 05:54:10;;;;;;;372.30;84.30;;;5.30;99.90;;;;;;5071868;28;20056;-75
2024/03/04 05:56:46;;;;;;;378.77;86.18;;;5.40;99.90;;;;;;5056445;28;20396;-75
2024/03/04 05:59:13;;;;;;;89.57;58.47;;;5.40;99.90;;;;;;5044597;28;20048;-75
2024/03/04 06:01:39;;;;;;;90.90;55.72;;;5.40;99.90;;;;;;5027215;28;20033;-75
2024/03/04 06:04:05;;;;;;;84.38;57.30;;;5.40;99.90;;;;;;5032117;28;20375;-75
2024/03/04 06:06:32;;;;;;;471.60;97.07;;;5.40;99.90;;;;;;5024965;28;20049;-75
2024/03/04 06:08:58;;;;;;;331.27;85.78;;;5.50;99.90;;;;;;5026463;28;20056;-76
2024/03/04 06:11:26;;;;;;;344.20;86.47;;;5.50;99.90;;;;;;5026190;28;20499;-75
2024/03/04 06:13:52;;;;;;;399.75;87.97;;;5.50;99.90;;;;;;5036350;28;20825;-75
2024/03/04 06:16:18;;;;;;;106.47;59.45;;;5.60;99.90;;;;;;5026555;28;20810;-76
2024/03/04 06:18:44;;;;;;;122.57;64.13;;;5.60;99.90;;;;;;5027925;28;20044;-77
2024/03/04 06:21:10;;;;;;;132.90;68.68;;;5.60;99.90;;;;;;5035916;28;20040;-75
2024/03/04 06:23:36;;;;;;;93.10;59.15;;;5.60;99.90;;;;;;5027212;28;20033;-77
2024/03/04 06:26:05;;;;;;;111.97;65.30;;;5.60;99.90;;;;;;5025253;28;20068;-76
2024/03/04 06:28:35;;;;;;;343.23;90.22;;;5.60;99.90;;;;;;5037253;28;20120;-76
2024/03/04 06:31:01;;;;;;;174.68;73.53;;;5.70;99.90;;;;;;5024666;28;20132;-76
2024/03/04 06:33:27;;;;;;;108.03;64.03;;;5.60;99.90;;;;;;5046259;28;20432;-76
2024/03/04 06:35:54;;;;;;;127.35;68.32;;;5.70;99.90;;;;;;5051087;28;20164;-76
2024/03/04 06:38:19;;;;;;;344.00;93.07;;;5.70;99.90;;;;;;5043964;28;20051;-75
2024/03/04 06:40:45;;;;;;;295.17;85.05;;;5.70;99.90;;;;;;5031673;28;20512;-75
2024/03/04 06:43:11;;;;;;;113.88;65.38;;;5.70;99.90;;;;;;5036065;28;20435;-75
2024/03/04 06:45:37;;;;;;;147.82;70.53;;;5.80;99.90;;;;;;5033163;28;20488;-75
2024/03/04 06:48:03;;;;;;;110.65;63.95;;;5.80;99.90;;;;;;5028520;28;20400;-75
2024/03/04 06:50:29;;;;;;;495.27;103.00;;;5.80;99.90;;;;;;5042775;28;20134;-76
2024/03/04 06:52:56;;;;;;;117.45;69.93;;;5.80;99.90;;;;;;5053060;28;20606;-77
2024/03/04 06:55:22;;;;;;;195.40;72.25;;;5.80;99.90;;;;;;5053325;28;20049;-76
2024/03/04 06:57:48;;;;;;;117.82;65.90;;;5.90;99.90;;;;;;5033233;28;20505;-77
2024/03/04 07:00:15;;;;;;;151.15;67.18;;;5.90;99.90;;;;;;5037213;28;20205;-76
2024/03/04 07:02:40;;;;;;;252.95;75.88;;;5.90;99.90;;;;;;5041857;28;20094;-75
2024/03/04 07:05:07;;;;;;;160.68;67.63;;;5.90;99.90;;;;;;5027884;28;20509;-76
2024/03/04 07:07:32;;;;;;;121.18;62.92;;;5.90;99.90;;;;;;5031040;28;20094;-76
2024/03/04 07:09:59;;;;;;;248.05;77.43;;;6.00;99.90;;;;;;5032638;28;20932;-76
2024/03/04 07:12:25;;;;;;;336.02;81.47;;;6.00;99.90;;;;;;5046373;28;20056;-76
2024/03/04 07:14:51;;;;;;;316.15;79.38;;;6.00;99.90;;;;;;5036755;28;20419;-75
2024/03/04 07:17:17;;;;;;;450.85;89.38;;;6.10;99.90;;;;;;5046744;28;20542;-76
2024/03/04 07:19:43;;;;;;;195.57;69.35;;;6.10;99.90;;;;;;5050087;28;20044;-75
2024/03/04 07:22:09;;;;;;;266.02;73.78;;;6.10;99.90;;;;;;5041581;28;21101;-76
2024/03/04 07:24:34;;;;;;;295.98;78.63;;;6.30;99.90;;;;;;5034665;28;20044;-74
2024/03/04 07:27:00;;;;;;;497.17;93.82;;;6.20;99.90;;;;;;5042772;28;20112;-76
2024/03/04 07:29:26;;;;;;;244.80;76.72;;;6.20;99.90;;;;;;5042728;28;20496;-75
2024/03/04 07:31:52;;;;;;;650.78;113.38;;;6.20;99.90;;;;;;5026096;28;20046;-75
2024/03/04 07:34:19;;;;;;;446.10;89.45;;;6.30;99.90;;;;;;5031538;28;20055;-76
2024/03/04 07:36:45;;;;;;;355.73;82.47;;;6.30;99.90;;;;;;5043592;28;20528;-75
2024/03/04 07:39:11;;;;;;;703.67;115.25;;;6.40;99.90;;;;;;5044015;28;20167;-76
2024/03/04 07:41:37;;;;;;;408.63;88.47;;;6.40;99.90;;;;;;5029665;28;20444;-76
2024/03/04 07:44:03;;;;;;;400.58;82.97;;;6.40;99.90;;;;;;5030863;28;20508;-75
2024/03/04 07:46:29;;;;;;;477.85;94.15;;;6.50;99.90;;;;;;5033895;28;20046;-76
2024/03/04 07:48:55;;;;;;;154.57;69.05;;;6.50;99.90;;;;;;5043254;28;20041;-75
2024/03/04 07:51:21;;;;;;;184.68;72.10;;;6.60;99.90;;;;;;5042081;28;20055;-75
2024/03/04 07:53:46;;;;;;;499.48;97.93;;;6.60;99.90;;;;;;5027336;28;20445;-75
2024/03/04 07:56:12;;;;;;;486.08;96.75;;;6.60;99.90;;;;;;5023808;28;20040;-76
2024/03/04 07:58:38;;;;;;;484.42;95.88;;;6.70;99.90;;;;;;5028908;28;20102;-76
2024/03/04 08:01:05;;;;;;;175.45;67.80;;;6.70;99.90;;;;;;5025736;28;20397;-75
2024/03/04 08:03:37;;;;;;;365.35;85.07;;;6.70;99.90;;;;;;5044480;28;20080;-75
2024/03/04 08:06:03;;;;;;;253.45;74.70;;;6.80;99.90;;;;;;5023280;28;20106;-76
2024/03/04 08:08:29;;;;;;;346.98;82.05;;;6.80;99.90;;;;;;5024238;28;20154;-76
2024/03/04 08:10:55;;;;;;;242.68;70.50;;;6.90;99.90;;;;;;5044596;28;20132;-75
2024/03/04 08:13:21;;;;;;;126.28;57.53;;;7.00;99.90;;;;;;5026352;28;20385;-76
2024/03/04 08:15:48;;;;;;;143.55;59.38;;;7.00;99.90;;;;;;5049928;28;20048;-75
2024/03/04 08:18:15;;;;;;;153.70;60.10;;;7.10;99.90;;;;;;5024732;28;20049;-75
2024/03/04 08:20:41;;;;;;;174.05;62.88;;;7.10;99.90;;;;;;5047879;28;20482;-75
2024/03/04 08:23:06;;;;;;;174.73;61.72;;;7.20;99.90;;;;;;5025560;28;20132;-74
2024/03/04 08:25:32;;;;;;;205.65;65.07;;;7.20;99.90;;;;;;5026185;28;20439;-75
2024/03/04 08:27:58;;;;;;;202.95;66.07;;;7.20;99.90;;;;;;5040379;28;20048;-76
2024/03/04 08:30:24;;;;;;;185.73;64.78;;;7.30;99.90;;;;;;5042018;28;20040;-75
2024/03/04 08:32:53;;;;;;;218.38;70.38;;;7.30;99.90;;;;;;5045361;28;20053;-75
2024/03/04 08:35:19;;;;;;;173.70;65.55;;;7.30;99.90;;;;;;5038524;28;20052;-75
2024/03/04 08:37:45;;;;;;;184.90;65.13;;;7.30;99.90;;;;;;5032764;28;20055;-74
2024/03/04 08:40:12;;;;;;;129.60;58.50;;;7.40;99.90;;;;;;5048720;28;20056;-75
2024/03/04 08:42:42;;;;;;;217.00;68.00;;;7.40;99.90;;;;;;5032549;28;20915;-75
2024/03/04 08:45:08;;;;;;;216.00;66.70;;;7.40;99.90;;;;;;5032309;28;20493;-75
2024/03/04 08:47:34;;;;;;;236.20;68.10;;;7.40;99.90;;;;;;5027391;28;20161;-76
2024/03/04 08:50:00;;;;;;;214.88;66.53;;;7.50;99.90;;;;;;5031572;28;20040;-75
2024/03/04 08:52:27;;;;;;;239.70;70.25;;;7.50;99.90;;;;;;5040632;28;20055;-75
2024/03/04 08:54:56;;;;;;;165.18;61.28;;;7.50;99.90;;;;;;5045508;28;20044;-76
2024/03/04 08:57:22;;;;;;;199.27;65.65;;;7.50;99.90;;;;;;5041212;28;20107;-75
2024/03/04 08:59:47;;;;;;;161.25;58.58;;;7.50;99.90;;;;;;5025830;28;20094;-75
2024/03/04 09:02:13;;;;;;;134.40;57.75;;;7.50;99.90;;;;;;5029592;28;20048;-75
2024/03/04 09:04:39;;;;;;;192.48;61.75;;;7.50;99.90;;;;;;5024221;28;20056;-75
2024/03/04 09:07:05;;;;;;;244.18;66.20;;;7.50;99.90;;;;;;5031542;28;20075;-75
2024/03/04 09:09:31;;;;;;;230.68;66.25;;;7.50;99.90;;;;;;5032737;28;20043;-75
2024/03/04 09:11:59;;;;;;;119.28;54.08;;;7.60;99.90;;;;;;5030825;28;20055;-75
2024/03/04 09:14:24;;;;;;;172.10;60.88;;;7.60;99.90;;;;;;5033187;28;20511;-76
2024/03/04 09:16:52;;;;;;;159.63;60.40;;;7.70;99.90;;;;;;5030217;28;20052;-75
2024/03/04 09:19:17;;;;;;;130.20;55.65;;;7.60;99.90;;;;;;5027232;28;20098;-76
2024/03/04 09:21:43;;;;;;;154.38;58.65;;;7.70;99.90;;;;;;5042837;28;20040;-75
2024/03/04 09:24:11;;;;;;;131.02;56.53;;;7.70;99.90;;;;;;5029261;28;20131;-74
2024/03/04 09:26:37;;;;;;;174.80;61.50;;;7.60;99.90;;;;;;5045059;28;20477;-75
2024/03/04 09:29:03;;;;;;;259.98;69.25;;;7.70;99.90;;;;;;5036919;28;20040;-74
2024/03/04 09:31:29;;;;;;;168.57;60.83;;;7.70;99.90;;;;;;5027980;28;20131;-75
2024/03/04 09:33:55;;;;;;;182.23;64.60;;;7.80;99.90;;;;;;5045631;28;20055;-75
2024/03/04 09:36:21;;;;;;;111.10;52.55;;;7.80;99.90;;;;;;5045575;28;20052;-75
2024/03/04 09:38:47;;;;;;;193.10;64.57;;;7.80;99.90;;;;;;5031974;28;20615;-75
2024/03/04 09:41:12;;;;;;;129.82;57.58;;;7.80;99.90;;;;;;5050484;28;20040;-75
2024/03/04 09:43:38;;;;;;;129.30;56.45;;;7.80;99.90;;;;;;5039937;28;20044;-75
2024/03/04 09:46:08;;;;;;;128.65;54.47;;;7.80;99.90;;;;;;5030055;28;20052;-75
2024/03/04 09:48:37;;;;;;;165.23;58.22;;;7.80;99.90;;;;;;5046538;28;20048;-75
2024/03/04 09:51:07;;;;;;;164.88;59.42;;;7.80;99.90;;;;;;5029456;28;20476;-75
2024/03/04 09:53:38;;;;;;;173.18;59.38;;;7.80;99.90;;;;;;5031825;28;20040;-75
2024/03/04 09:56:04;;;;;;;161.90;57.92;;;7.80;99.90;;;;;;5044065;28;20604;-75
2024/03/04 09:58:32;;;;;;;113.97;52.28;;;7.80;99.90;;;;;;5032622;28;20574;-75
2024/03/04 10:00:59;;;;;;;118.78;54.60;;;7.80;99.90;;;;;;5051838;28;20131;-75
2024/03/04 10:03:26;;;;;;;114.43;52.17;;;7.80;99.90;;;;;;5045568;28;20497;-75
2024/03/04 10:05:52;;;;;;;115.43;53.75;;;7.80;99.90;;;;;;5026775;28;20048;-75
2024/03/04 10:08:18;;;;;;;169.27;60.25;;;7.80;99.90;;;;;;5040260;28;20528;-75
2024/03/04 10:10:49;;;;;;;170.85;60.17;;;7.80;99.90;;;;;;5052702;28;20067;-75
2024/03/04 10:13:16;;;;;;;143.73;58.50;;;7.90;99.90;;;;;;5031682;28;20514;-75
2024/03/04 10:15:46;;;;;;;169.13;58.40;;;7.90;99.90;;;;;;5039262;28;20570;-75
2024/03/04 10:18:12;;;;;;;142.77;57.70;;;7.90;99.90;;;;;;5027637;28;20459;-75
2024/03/04 10:20:39;;;;;;;148.25;56.40;;;7.90;99.90;;;;;;5034543;28;20092;-75
2024/03/04 10:23:05;;;;;;;153.50;55.88;;;7.90;99.90;;;;;;5046092;28;20041;-75
2024/03/04 10:25:31;;;;;;;149.63;58.03;;;7.90;99.90;;;;;;5048432;28;20048;-76
2024/03/04 10:27:57;;;;;;;125.25;54.63;;;8.00;99.90;;;;;;5028158;28;21004;-75
2024/03/04 10:30:27;;;;;;;140.43;56.53;;;8.00;99.90;;;;;;5033129;28;20040;-76
2024/03/04 10:32:57;;;;;;;168.18;56.80;;;8.00;99.90;;;;;;5028005;28;20053;-76
2024/03/04 10:35:25;;;;;;;132.60;53.70;;;8.00;99.90;;;;;;5032297;28;20052;-75
2024/03/04 10:37:52;;;;;;;158.63;59.10;;;8.00;99.90;;;;;;5041490;28;20446;-76
2024/03/04 10:40:22;;;;;;;156.52;57.40;;;8.00;99.90;;;;;;5041138;28;20037;-76
2024/03/04 10:42:48;;;;;;;156.93;59.75;;;8.00;99.90;;;;;;5049862;28;20046;-75
2024/03/04 10:45:15;;;;;;;174.20;61.33;;;8.10;99.90;;;;;;5032457;28;20039;-76
2024/03/04 10:47:43;;;;;;;206.90;61.55;;;8.10;99.90;;;;;;5044589;28;20052;-75
2024/03/04 10:50:12;;;;;;;179.15;59.33;;;8.10;99.90;;;;;;5028476;28;20045;-76
2024/03/04 10:52:38;;;;;;;135.77;54.50;;;8.10;99.90;;;;;;5049155;28;20063;-76
2024/03/04 10:55:04;;;;;;;139.73;54.63;;;8.10;99.90;;;;;;5054268;28;20299;-76
2024/03/04 10:57:32;;;;;;;154.27;56.83;;;8.10;99.90;;;;;;5045089;28;20036;-75
2024/03/04 11:00:10;;;;;;;134.10;55.00;;;8.10;99.90;;;;;;5045547;28;20036;-75
2024/03/04 11:03:03;;;;;;;125.88;55.15;;;8.20;99.90;;;;;;5042818;28;20488;-76
2024/03/04 11:05:32;;;;;;;165.63;59.10;;;8.20;99.90;;;;;;5020750;28;20188;-75
2024/03/04 11:08:18;;;;;;;148.90;58.05;;;8.20;99.90;;;;;;5020869;28;20080;-75
2024/03/04 11:10:53;;;;;;;173.27;60.88;;;8.30;99.90;;;;;;5018991;28;20397;-75
2024/03/04 11:13:34;;;;;;;157.13;60.08;;;8.20;99.90;;;;;;5035885;28;20406;-75
2024/03/04 11:16:20;;;;;;;153.23;58.58;;;8.20;99.90;;;;;;5038980;28;20045;-76
2024/03/04 11:19:11;;;;;;;157.27;60.83;;;8.30;99.90;;;;;;5028943;28;20076;-76
2024/03/04 11:21:42;;;;;;;147.05;59.60;;;8.30;99.90;;;;;;5044986;28;20037;-75
2024/03/04 11:24:09;;;;;;;127.78;55.78;;;8.40;99.90;;;;;;5033546;28;20158;-76
2024/03/04 11:26:37;;;;;;;168.77;63.60;;;8.40;99.90;;;;;;5014656;28;20508;-75
2024/03/04 11:29:04;;;;;;;148.57;61.25;;;8.40;99.90;;;;;;5022645;28;20044;-76
2024/03/04 11:31:33;;;;;;;146.95;58.45;;;8.40;99.90;;;;;;5026003;28;20054;-75
2024/03/04 11:34:01;;;;;;;156.02;62.28;;;8.40;99.90;;;;;;5035498;28;20037;-76
2024/03/04 11:36:27;;;;;;;147.40;60.65;;;8.50;99.90;;;;;;5032604;28;20110;-75
2024/03/04 11:38:52;;;;;;;143.10;59.80;;;8.50;99.90;;;;;;5023290;28;20501;-76
2024/03/04 11:41:39;;;;;;;136.00;58.42;;;8.50;99.90;;;;;;5029410;28;20103;-75
2024/03/04 11:44:05;;;;;;;140.45;57.67;;;8.50;99.90;;;;;;5025201;28;20063;-75
2024/03/04 11:46:42;;;;;;;142.50;55.10;;;8.50;99.90;;;;;;5046698;28;20501;-75
2024/03/04 11:49:28;;;;;;;127.50;52.42;;;8.50;99.90;;;;;;5020409;28;20049;-76
2024/03/04 11:52:04;;;;;;;132.05;54.40;;;8.50;99.90;;;;;;5026992;28;20138;-75
2024/03/04 11:54:41;;;;;;;121.63;50.65;;;8.50;99.90;;;;;;5021679;28;20045;-76
2024/03/04 11:57:08;;;;;;;117.32;50.88;;;8.50;99.90;;;;;;5035444;28;20137;-76
2024/03/04 11:59:40;;;;;;;120.53;49.95;;;8.50;99.90;;;;;;5034380;28;20416;-75
2024/03/04 12:02:12;;;;;;;116.13;49.58;;;8.50;99.90;;;;;;5035117;28;20056;-76
2024/03/04 12:04:40;;;;;;;123.18;49.83;;;8.50;99.90;;;;;;5028618;28;20102;-75
2024/03/04 12:07:07;;;;;;;107.15;47.53;;;8.60;99.90;;;;;;5034845;28;20508;-75
2024/03/04 12:09:36;;;;;;;104.15;46.35;;;8.60;99.90;;;;;;5046497;28;20044;-75
2024/03/04 12:12:05;;;;;;;100.13;45.45;;;8.60;99.90;;;;;;5025400;28;20044;-76
2024/03/04 12:14:30;;;;;;;103.22;46.25;;;8.60;99.90;;;;;;5023630;28;20153;-76
2024/03/04 12:16:57;;;;;;;97.28;44.90;;;8.60;99.90;;;;;;5035494;28;20128;-75
2024/03/04 12:19:24;;;;;;;89.78;42.85;;;8.60;99.90;;;;;;5030139;28;20048;-75
2024/03/04 12:21:49;;;;;;;91.85;41.55;;;8.60;99.90;;;;;;5020779;28;20429;-75
2024/03/04 12:24:19;;;;;;;91.35;42.20;;;8.60;99.90;;;;;;5026510;28;20132;-75
2024/03/04 12:26:54;;;;;;;84.70;40.15;;;8.60;99.90;;;;;;5048908;28;20078;-76
2024/03/04 12:29:25;;;;;;;83.78;39.92;;;8.60;99.90;;;;;;5028131;28;20513;-74
2024/03/04 12:31:55;;;;;;;73.93;37.70;;;8.60;99.90;;;;;;5012046;28;20048;-74